sensor_id;sensor_type;location;lat;lon;timestamp;P1;durP1;ratioP1;P2;durP2;ratioP2
17943;SDS011;9097;47.028;15.444;2023-02-17T00:00:13;16.30;;;6.83;;
17943;SDS011;9097;47.028;15.444;2023-02-17T00:03:16;13.03;;;4.60;;
17943;SDS011;9097;47.028;15.444;2023-02-17T00:06:19;9.43;;;5.03;;
17943;SDS011;9097;47.028;15.444;2023-02-17T00:09:23;10.07;;;4.33;;
17943;SDS011;9097;47.028;15.444;2023-02-17T00:12:26;10.47;;;7.17;;
17943;SDS011;9097;47.028;15.444;2023-02-17T00:15:29;5.83;;;4.70;;
17943;SDS011;9097;47.028;15.444;2023-02-17T00:18:32;19.70;;;6.53;;
17943;SDS011;9097;47.028;15.444;2023-02-17T00:21:34;7.30;;;5.37;;
17943;SDS011;9097;47.028;15.444;2023-02-17T00:24:38;16.63;;;7.67;;
17943;SDS011;9097;47.028;15.444;2023-02-17T00:27:42;11.63;;;4.90;;
17943;SDS011;9097;47.028;15.444;2023-02-17T00:30:44;13.00;;;7.37;;
17943;SDS011;9097;47.028;15.444;2023-02-17T00:33:47;16.87;;;5.77;;
17943;SDS011;9097;47.028;15.444;2023-02-17T00:36:50;12.00;;;6.13;;
17943;SDS011;9097;47.028;15.444;2023-02-17T00:39:54;14.03;;;6.00;;
17943;SDS011;9097;47.028;15.444;2023-02-17T00:42:57;11.23;;;5.37;;
17943;SDS011;9097;47.028;15.444;2023-02-17T00:45:59;11.80;;;4.63;;
17943;SDS011;9097;47.028;15.444;2023-02-17T00:49:03;7.27;;;4.83;;
17943;SDS011;9097;47.028;15.444;2023-02-17T00:52:07;13.13;;;4.73;;
17943;SDS011;9097;47.028;15.444;2023-02-17T00:55:11;9.87;;;5.63;;
17943;SDS011;9097;47.028;15.444;2023-02-17T00:58:14;7.70;;;5.53;;
17943;SDS011;9097;47.028;15.444;2023-02-17T01:01:16;12.10;;;6.43;;
17943;SDS011;9097;47.028;15.444;2023-02-17T01:04:19;12.93;;;6.53;;
17943;SDS011;9097;47.028;15.444;2023-02-17T01:07:21;13.97;;;5.43;;
17943;SDS011;9097;47.028;15.444;2023-02-17T01:10:25;11.97;;;6.47;;
17943;SDS011;9097;47.028;15.444;2023-02-17T01:13:28;19.90;;;6.50;;
17943;SDS011;9097;47.028;15.444;2023-02-17T01:16:32;5.37;;;4.00;;
17943;SDS011;9097;47.028;15.444;2023-02-17T01:19:35;13.83;;;5.27;;
17943;SDS011;9097;47.028;15.444;2023-02-17T01:22:38;12.87;;;6.87;;
17943;SDS011;9097;47.028;15.444;2023-02-17T01:25:42;10.53;;;5.07;;
17943;SDS011;9097;47.028;15.444;2023-02-17T01:28:45;16.00;;;5.07;;
17943;SDS011;9097;47.028;15.444;2023-02-17T01:31:48;11.63;;;4.13;;
17943;SDS011;9097;47.028;15.444;2023-02-17T01:34:50;15.43;;;6.43;;
17943;SDS011;9097;47.028;15.444;2023-02-17T01:37:53;8.70;;;4.87;;
17943;SDS011;9097;47.028;15.444;2023-02-17T01:40:57;6.03;;;4.93;;
17943;SDS011;9097;47.028;15.444;2023-02-17T01:44:04;16.23;;;5.33;;
17943;SDS011;9097;47.028;15.444;2023-02-17T01:47:08;10.70;;;6.53;;
17943;SDS011;9097;47.028;15.444;2023-02-17T01:50:14;7.87;;;6.30;;
17943;SDS011;9097;47.028;15.444;2023-02-17T01:53:18;20.63;;;7.37;;
17943;SDS011;9097;47.028;15.444;2023-02-17T01:56:24;4.07;;;2.93;;
17943;SDS011;9097;47.028;15.444;2023-02-17T01:59:27;10.60;;;4.63;;
17943;SDS011;9097;47.028;15.444;2023-02-17T02:02:31;11.20;;;4.90;;
17943;SDS011;9097;47.028;15.444;2023-02-17T02:05:34;11.77;;;6.27;;
17943;SDS011;9097;47.028;15.444;2023-02-17T02:08:40;9.20;;;4.67;;
17943;SDS011;9097;47.028;15.444;2023-02-17T02:11:47;13.47;;;6.47;;
17943;SDS011;9097;47.028;15.444;2023-02-17T02:14:50;8.37;;;5.07;;
17943;SDS011;9097;47.028;15.444;2023-02-17T02:18:00;12.50;;;6.30;;
17943;SDS011;9097;47.028;15.444;2023-02-17T02:24:34;12.47;;;4.97;;
17943;SDS011;9097;47.028;15.444;2023-02-17T02:27:44;13.47;;;5.70;;
17943;SDS011;9097;47.028;15.444;2023-02-17T02:30:50;14.43;;;6.57;;
17943;SDS011;9097;47.028;15.444;2023-02-17T02:33:56;7.40;;;6.27;;
17943;SDS011;9097;47.028;15.444;2023-02-17T02:37:01;10.10;;;5.30;;
17943;SDS011;9097;47.028;15.444;2023-02-17T02:40:08;6.43;;;5.17;;
17943;SDS011;9097;47.028;15.444;2023-02-17T02:43:12;8.83;;;5.33;;
17943;SDS011;9097;47.028;15.444;2023-02-17T02:46:15;16.30;;;8.60;;
17943;SDS011;9097;47.028;15.444;2023-02-17T02:49:19;7.80;;;6.30;;
17943;SDS011;9097;47.028;15.444;2023-02-17T02:52:23;11.00;;;6.10;;
17943;SDS011;9097;47.028;15.444;2023-02-17T02:55:32;15.33;;;7.33;;
17943;SDS011;9097;47.028;15.444;2023-02-17T02:58:41;7.77;;;5.40;;
17943;SDS011;9097;47.028;15.444;2023-02-17T03:01:49;6.47;;;4.27;;
17943;SDS011;9097;47.028;15.444;2023-02-17T03:04:55;10.00;;;5.53;;
17943;SDS011;9097;47.028;15.444;2023-02-17T03:08:00;12.07;;;4.53;;
17943;SDS011;9097;47.028;15.444;2023-02-17T03:11:04;15.10;;;8.57;;
17943;SDS011;9097;47.028;15.444;2023-02-17T03:14:08;13.87;;;6.17;;
17943;SDS011;9097;47.028;15.444;2023-02-17T03:17:11;16.27;;;6.23;;
17943;SDS011;9097;47.028;15.444;2023-02-17T03:20:15;10.83;;;5.20;;
17943;SDS011;9097;47.028;15.444;2023-02-17T03:23:18;14.47;;;5.87;;
17943;SDS011;9097;47.028;15.444;2023-02-17T03:26:21;17.00;;;7.60;;
17943;SDS011;9097;47.028;15.444;2023-02-17T03:29:23;11.37;;;6.50;;
17943;SDS011;9097;47.028;15.444;2023-02-17T03:32:26;18.67;;;6.20;;
17943;SDS011;9097;47.028;15.444;2023-02-17T03:35:30;9.07;;;5.23;;
17943;SDS011;9097;47.028;15.444;2023-02-17T03:38:33;11.43;;;6.97;;
17943;SDS011;9097;47.028;15.444;2023-02-17T03:41:35;9.47;;;5.13;;
17943;SDS011;9097;47.028;15.444;2023-02-17T03:44:38;11.07;;;6.90;;
17943;SDS011;9097;47.028;15.444;2023-02-17T03:47:40;17.23;;;7.90;;
17943;SDS011;9097;47.028;15.444;2023-02-17T03:50:44;19.67;;;6.90;;
17943;SDS011;9097;47.028;15.444;2023-02-17T03:53:47;11.50;;;6.63;;
17943;SDS011;9097;47.028;15.444;2023-02-17T03:56:50;13.97;;;6.67;;
17943;SDS011;9097;47.028;15.444;2023-02-17T03:59:53;19.67;;;5.80;;
17943;SDS011;9097;47.028;15.444;2023-02-17T04:02:55;12.83;;;7.10;;
17943;SDS011;9097;47.028;15.444;2023-02-17T04:06:00;12.00;;;5.50;;
17943;SDS011;9097;47.028;15.444;2023-02-17T04:09:03;13.07;;;6.03;;
17943;SDS011;9097;47.028;15.444;2023-02-17T04:12:05;12.27;;;6.57;;
17943;SDS011;9097;47.028;15.444;2023-02-17T04:15:08;10.33;;;5.50;;
17943;SDS011;9097;47.028;15.444;2023-02-17T04:18:11;11.33;;;5.07;;
17943;SDS011;9097;47.028;15.444;2023-02-17T04:21:15;9.57;;;5.33;;
17943;SDS011;9097;47.028;15.444;2023-02-17T04:24:18;11.63;;;5.87;;
17943;SDS011;9097;47.028;15.444;2023-02-17T04:27:20;11.93;;;6.03;;
17943;SDS011;9097;47.028;15.444;2023-02-17T04:30:23;15.63;;;6.70;;
17943;SDS011;9097;47.028;15.444;2023-02-17T04:33:25;14.30;;;4.47;;
17943;SDS011;9097;47.028;15.444;2023-02-17T04:36:29;7.00;;;4.33;;
17943;SDS011;9097;47.028;15.444;2023-02-17T04:39:32;7.63;;;5.07;;
17943;SDS011;9097;47.028;15.444;2023-02-17T04:42:35;10.40;;;6.23;;
17943;SDS011;9097;47.028;15.444;2023-02-17T04:45:37;8.87;;;5.30;;
17943;SDS011;9097;47.028;15.444;2023-02-17T04:48:40;8.47;;;6.10;;
17943;SDS011;9097;47.028;15.444;2023-02-17T04:51:44;16.13;;;8.00;;
17943;SDS011;9097;47.028;15.444;2023-02-17T04:54:46;11.70;;;6.83;;
17943;SDS011;9097;47.028;15.444;2023-02-17T04:57:49;9.53;;;5.43;;
17943;SDS011;9097;47.028;15.444;2023-02-17T05:00:51;13.37;;;6.83;;
17943;SDS011;9097;47.028;15.444;2023-02-17T05:03:54;12.33;;;6.23;;
17943;SDS011;9097;47.028;15.444;2023-02-17T05:06:58;14.80;;;4.43;;
17943;SDS011;9097;47.028;15.444;2023-02-17T05:10:00;25.73;;;5.90;;
17943;SDS011;9097;47.028;15.444;2023-02-17T05:13:03;14.83;;;3.87;;
17943;SDS011;9097;47.028;15.444;2023-02-17T05:16:06;10.47;;;5.03;;
17943;SDS011;9097;47.028;15.444;2023-02-17T05:19:08;20.70;;;6.13;;
17943;SDS011;9097;47.028;15.444;2023-02-17T05:22:12;10.13;;;4.93;;
17943;SDS011;9097;47.028;15.444;2023-02-17T05:25:15;10.67;;;5.57;;
17943;SDS011;9097;47.028;15.444;2023-02-17T05:28:17;9.00;;;4.33;;
17943;SDS011;9097;47.028;15.444;2023-02-17T05:31:20;11.17;;;3.90;;
17943;SDS011;9097;47.028;15.444;2023-02-17T05:34:22;7.87;;;4.37;;
17943;SDS011;9097;47.028;15.444;2023-02-17T05:37:26;12.60;;;6.90;;
17943;SDS011;9097;47.028;15.444;2023-02-17T05:40:29;10.63;;;3.83;;
17943;SDS011;9097;47.028;15.444;2023-02-17T05:43:31;14.77;;;6.20;;
17943;SDS011;9097;47.028;15.444;2023-02-17T05:46:34;11.77;;;4.80;;
17943;SDS011;9097;47.028;15.444;2023-02-17T05:49:37;12.57;;;3.77;;
17943;SDS011;9097;47.028;15.444;2023-02-17T05:52:41;5.27;;;3.63;;
17943;SDS011;9097;47.028;15.444;2023-02-17T05:55:43;9.50;;;4.57;;
17943;SDS011;9097;47.028;15.444;2023-02-17T05:58:46;12.20;;;4.83;;
17943;SDS011;9097;47.028;15.444;2023-02-17T06:01:48;8.27;;;4.03;;
17943;SDS011;9097;47.028;15.444;2023-02-17T06:04:51;7.40;;;4.40;;
17943;SDS011;9097;47.028;15.444;2023-02-17T06:07:55;5.93;;;3.20;;
17943;SDS011;9097;47.028;15.444;2023-02-17T06:10:57;14.47;;;4.63;;
17943;SDS011;9097;47.028;15.444;2023-02-17T06:14:00;9.57;;;5.30;;
17943;SDS011;9097;47.028;15.444;2023-02-17T06:17:02;6.17;;;3.10;;
17943;SDS011;9097;47.028;15.444;2023-02-17T06:20:06;8.93;;;5.03;;
17943;SDS011;9097;47.028;15.444;2023-02-17T06:23:10;5.83;;;4.53;;
17943;SDS011;9097;47.028;15.444;2023-02-17T06:26:12;7.90;;;4.07;;
17943;SDS011;9097;47.028;15.444;2023-02-17T06:29:15;6.27;;;4.03;;
17943;SDS011;9097;47.028;15.444;2023-02-17T06:32:17;8.80;;;3.80;;
17943;SDS011;9097;47.028;15.444;2023-02-17T06:35:20;6.40;;;3.93;;
17943;SDS011;9097;47.028;15.444;2023-02-17T06:38:24;8.50;;;4.27;;
17943;SDS011;9097;47.028;15.444;2023-02-17T06:41:27;9.60;;;4.53;;
17943;SDS011;9097;47.028;15.444;2023-02-17T06:44:30;4.30;;;3.40;;
17943;SDS011;9097;47.028;15.444;2023-02-17T06:47:32;12.90;;;5.10;;
17943;SDS011;9097;47.028;15.444;2023-02-17T06:50:35;8.90;;;3.87;;
17943;SDS011;9097;47.028;15.444;2023-02-17T06:53:39;9.23;;;4.07;;
17943;SDS011;9097;47.028;15.444;2023-02-17T06:56:42;11.13;;;5.57;;
17943;SDS011;9097;47.028;15.444;2023-02-17T06:59:44;7.33;;;4.43;;
17943;SDS011;9097;47.028;15.444;2023-02-17T07:02:47;8.13;;;5.40;;
17943;SDS011;9097;47.028;15.444;2023-02-17T07:05:49;10.27;;;5.53;;
17943;SDS011;9097;47.028;15.444;2023-02-17T07:08:59;4.70;;;3.23;;
17943;SDS011;9097;47.028;15.444;2023-02-17T07:12:02;11.37;;;5.27;;
17943;SDS011;9097;47.028;15.444;2023-02-17T07:15:05;12.03;;;4.53;;
17943;SDS011;9097;47.028;15.444;2023-02-17T07:18:07;7.77;;;4.73;;
17943;SDS011;9097;47.028;15.444;2023-02-17T07:21:10;14.90;;;6.03;;
17943;SDS011;9097;47.028;15.444;2023-02-17T07:24:14;8.80;;;4.33;;
17943;SDS011;9097;47.028;15.444;2023-02-17T07:27:16;11.23;;;5.13;;
17943;SDS011;9097;47.028;15.444;2023-02-17T07:30:19;6.37;;;4.77;;
17943;SDS011;9097;47.028;15.444;2023-02-17T07:33:22;9.37;;;5.07;;
17943;SDS011;9097;47.028;15.444;2023-02-17T07:36:24;16.20;;;5.10;;
17943;SDS011;9097;47.028;15.444;2023-02-17T07:39:28;10.63;;;6.47;;
17943;SDS011;9097;47.028;15.444;2023-02-17T07:42:31;10.70;;;5.67;;
17943;SDS011;9097;47.028;15.444;2023-02-17T07:45:33;10.00;;;5.83;;
17943;SDS011;9097;47.028;15.444;2023-02-17T07:48:36;10.47;;;5.70;;
17943;SDS011;9097;47.028;15.444;2023-02-17T07:51:39;8.77;;;5.10;;
17943;SDS011;9097;47.028;15.444;2023-02-17T07:54:43;9.83;;;3.90;;
17943;SDS011;9097;47.028;15.444;2023-02-17T07:57:45;8.83;;;4.97;;
17943;SDS011;9097;47.028;15.444;2023-02-17T08:00:48;7.07;;;4.43;;
17943;SDS011;9097;47.028;15.444;2023-02-17T08:03:51;9.50;;;5.70;;
17943;SDS011;9097;47.028;15.444;2023-02-17T08:06:53;13.53;;;5.60;;
17943;SDS011;9097;47.028;15.444;2023-02-17T08:09:57;9.17;;;5.50;;
17943;SDS011;9097;47.028;15.444;2023-02-17T08:13:17;10.57;;;6.03;;
17943;SDS011;9097;47.028;15.444;2023-02-17T08:16:20;10.00;;;5.73;;
17943;SDS011;9097;47.028;15.444;2023-02-17T08:19:22;8.83;;;5.07;;
17943;SDS011;9097;47.028;15.444;2023-02-17T08:22:26;9.67;;;5.20;;
17943;SDS011;9097;47.028;15.444;2023-02-17T08:25:31;11.47;;;5.67;;
17943;SDS011;9097;47.028;15.444;2023-02-17T08:28:34;10.60;;;4.03;;
17943;SDS011;9097;47.028;15.444;2023-02-17T08:31:36;10.17;;;6.03;;
17943;SDS011;9097;47.028;15.444;2023-02-17T08:34:39;13.00;;;6.33;;
17943;SDS011;9097;47.028;15.444;2023-02-17T08:37:41;7.17;;;4.77;;
17943;SDS011;9097;47.028;15.444;2023-02-17T08:40:45;9.77;;;5.47;;
17943;SDS011;9097;47.028;15.444;2023-02-17T08:43:48;10.90;;;5.27;;
17943;SDS011;9097;47.028;15.444;2023-02-17T08:46:51;11.73;;;4.73;;
17943;SDS011;9097;47.028;15.444;2023-02-17T08:49:54;10.93;;;5.53;;
17943;SDS011;9097;47.028;15.444;2023-02-17T08:52:56;14.30;;;6.83;;
17943;SDS011;9097;47.028;15.444;2023-02-17T08:56:00;16.90;;;6.80;;
17943;SDS011;9097;47.028;15.444;2023-02-17T08:59:03;14.83;;;7.87;;
17943;SDS011;9097;47.028;15.444;2023-02-17T09:02:06;16.67;;;6.30;;
17943;SDS011;9097;47.028;15.444;2023-02-17T09:05:09;7.50;;;4.63;;
17943;SDS011;9097;47.028;15.444;2023-02-17T09:08:12;10.30;;;4.67;;
17943;SDS011;9097;47.028;15.444;2023-02-17T09:11:16;7.60;;;4.60;;
17943;SDS011;9097;47.028;15.444;2023-02-17T09:14:20;9.18;;;4.25;;
17943;SDS011;9097;47.028;15.444;2023-02-17T09:17:24;10.68;;;4.82;;
17943;SDS011;9097;47.028;15.444;2023-02-17T09:20:27;8.20;;;4.95;;
17943;SDS011;9097;47.028;15.444;2023-02-17T09:23:29;7.20;;;4.03;;
17943;SDS011;9097;47.028;15.444;2023-02-17T09:26:34;6.45;;;4.68;;
17943;SDS011;9097;47.028;15.444;2023-02-17T09:29:37;5.35;;;4.45;;
17943;SDS011;9097;47.028;15.444;2023-02-17T09:32:39;10.57;;;4.43;;
17943;SDS011;9097;47.028;15.444;2023-02-17T09:35:43;4.57;;;3.72;;
17943;SDS011;9097;47.028;15.444;2023-02-17T09:38:46;5.68;;;4.50;;
17943;SDS011;9097;47.028;15.444;2023-02-17T09:41:51;6.13;;;4.28;;
17943;SDS011;9097;47.028;15.444;2023-02-17T09:44:54;5.40;;;3.80;;
17943;SDS011;9097;47.028;15.444;2023-02-17T09:48:00;5.60;;;3.85;;
17943;SDS011;9097;47.028;15.444;2023-02-17T09:51:05;7.28;;;3.65;;
17943;SDS011;9097;47.028;15.444;2023-02-17T09:54:12;7.40;;;4.30;;
17943;SDS011;9097;47.028;15.444;2023-02-17T09:57:18;7.95;;;4.32;;
17943;SDS011;9097;47.028;15.444;2023-02-17T10:00:23;10.00;;;4.72;;
17943;SDS011;9097;47.028;15.444;2023-02-17T10:03:27;7.13;;;4.22;;
17943;SDS011;9097;47.028;15.444;2023-02-17T10:06:32;6.22;;;3.92;;
17943;SDS011;9097;47.028;15.444;2023-02-17T10:09:38;5.22;;;4.00;;
17943;SDS011;9097;47.028;15.444;2023-02-17T10:12:47;6.35;;;3.53;;
17943;SDS011;9097;47.028;15.444;2023-02-17T10:15:52;7.45;;;4.30;;
17943;SDS011;9097;47.028;15.444;2023-02-17T10:18:56;5.85;;;3.50;;
17943;SDS011;9097;47.028;15.444;2023-02-17T10:22:01;7.63;;;3.47;;
17943;SDS011;9097;47.028;15.444;2023-02-17T10:25:12;5.80;;;3.05;;
17943;SDS011;9097;47.028;15.444;2023-02-17T10:28:19;8.32;;;4.05;;
17943;SDS011;9097;47.028;15.444;2023-02-17T10:31:33;5.97;;;3.10;;
17943;SDS011;9097;47.028;15.444;2023-02-17T10:34:40;7.55;;;3.85;;
17943;SDS011;9097;47.028;15.444;2023-02-17T10:37:53;4.95;;;3.03;;
17943;SDS011;9097;47.028;15.444;2023-02-17T10:40:59;5.25;;;3.58;;
17943;SDS011;9097;47.028;15.444;2023-02-17T10:44:05;5.10;;;3.15;;
17943;SDS011;9097;47.028;15.444;2023-02-17T10:47:10;5.68;;;3.05;;
17943;SDS011;9097;47.028;15.444;2023-02-17T10:50:16;4.95;;;2.85;;
17943;SDS011;9097;47.028;15.444;2023-02-17T10:53:21;3.10;;;2.00;;
17943;SDS011;9097;47.028;15.444;2023-02-17T10:56:27;2.08;;;1.48;;
17943;SDS011;9097;47.028;15.444;2023-02-17T10:59:36;2.35;;;1.80;;
17943;SDS011;9097;47.028;15.444;2023-02-17T11:02:41;3.40;;;1.80;;
17943;SDS011;9097;47.028;15.444;2023-02-17T11:05:50;6.47;;;2.00;;
17943;SDS011;9097;47.028;15.444;2023-02-17T11:08:55;6.60;;;1.90;;
17943;SDS011;9097;47.028;15.444;2023-02-17T11:12:02;4.40;;;2.42;;
17943;SDS011;9097;47.028;15.444;2023-02-17T11:15:13;4.68;;;1.92;;
17943;SDS011;9097;47.028;15.444;2023-02-17T11:18:18;2.78;;;1.50;;
17943;SDS011;9097;47.028;15.444;2023-02-17T11:21:22;2.63;;;2.00;;
17943;SDS011;9097;47.028;15.444;2023-02-17T11:24:25;3.20;;;1.75;;
17943;SDS011;9097;47.028;15.444;2023-02-17T11:27:28;2.75;;;1.65;;
17943;SDS011;9097;47.028;15.444;2023-02-17T11:30:33;3.97;;;1.92;;
17943;SDS011;9097;47.028;15.444;2023-02-17T11:33:36;3.13;;;1.60;;
17943;SDS011;9097;47.028;15.444;2023-02-17T11:36:39;3.67;;;1.70;;
17943;SDS011;9097;47.028;15.444;2023-02-17T11:39:46;3.05;;;1.85;;
17943;SDS011;9097;47.028;15.444;2023-02-17T11:42:53;2.05;;;1.50;;
17943;SDS011;9097;47.028;15.444;2023-02-17T11:46:04;2.22;;;1.85;;
17943;SDS011;9097;47.028;15.444;2023-02-17T11:49:24;2.55;;;1.90;;
17943;SDS011;9097;47.028;15.444;2023-02-17T11:52:35;2.85;;;2.55;;
17943;SDS011;9097;47.028;15.444;2023-02-17T11:55:44;3.88;;;1.73;;
17943;SDS011;9097;47.028;15.444;2023-02-17T12:02:12;3.25;;;1.98;;
17943;SDS011;9097;47.028;15.444;2023-02-17T12:05:19;3.60;;;1.98;;
17943;SDS011;9097;47.028;15.444;2023-02-17T12:08:25;2.42;;;1.73;;
17943;SDS011;9097;47.028;15.444;2023-02-17T12:11:33;4.20;;;1.92;;
17943;SDS011;9097;47.028;15.444;2023-02-17T12:14:46;4.25;;;2.00;;
17943;SDS011;9097;47.028;15.444;2023-02-17T12:17:58;2.83;;;1.98;;
17943;SDS011;9097;47.028;15.444;2023-02-17T12:21:03;3.75;;;2.20;;
17943;SDS011;9097;47.028;15.444;2023-02-17T12:24:25;3.03;;;2.05;;
17943;SDS011;9097;47.028;15.444;2023-02-17T12:27:40;2.85;;;2.00;;
17943;SDS011;9097;47.028;15.444;2023-02-17T12:30:51;1.92;;;1.65;;
17943;SDS011;9097;47.028;15.444;2023-02-17T12:33:58;2.60;;;1.60;;
17943;SDS011;9097;47.028;15.444;2023-02-17T12:37:02;2.40;;;2.00;;
17943;SDS011;9097;47.028;15.444;2023-02-17T12:40:13;5.47;;;2.67;;
17943;SDS011;9097;47.028;15.444;2023-02-17T12:43:23;4.50;;;2.10;;
17943;SDS011;9097;47.028;15.444;2023-02-17T12:46:27;2.35;;;2.08;;
17943;SDS011;9097;47.028;15.444;2023-02-17T12:49:33;3.65;;;2.58;;
17943;SDS011;9097;47.028;15.444;2023-02-17T12:52:38;3.55;;;2.00;;
17943;SDS011;9097;47.028;15.444;2023-02-17T12:55:42;6.78;;;2.67;;
17943;SDS011;9097;47.028;15.444;2023-02-17T12:58:47;5.30;;;2.20;;
17943;SDS011;9097;47.028;15.444;2023-02-17T13:01:55;3.55;;;2.33;;
17943;SDS011;9097;47.028;15.444;2023-02-17T13:05:01;6.30;;;2.53;;
17943;SDS011;9097;47.028;15.444;2023-02-17T13:08:06;3.83;;;2.53;;
17943;SDS011;9097;47.028;15.444;2023-02-17T13:11:12;4.13;;;2.20;;
17943;SDS011;9097;47.028;15.444;2023-02-17T13:14:23;4.33;;;1.87;;
17943;SDS011;9097;47.028;15.444;2023-02-17T13:17:27;3.57;;;2.33;;
17943;SDS011;9097;47.028;15.444;2023-02-17T13:20:39;7.40;;;3.07;;
17943;SDS011;9097;47.028;15.444;2023-02-17T13:23:45;3.07;;;2.13;;
17943;SDS011;9097;47.028;15.444;2023-02-17T13:27:08;5.10;;;2.38;;
17943;SDS011;9097;47.028;15.444;2023-02-17T13:30:24;3.77;;;2.57;;
17943;SDS011;9097;47.028;15.444;2023-02-17T13:33:29;4.03;;;1.90;;
17943;SDS011;9097;47.028;15.444;2023-02-17T13:36:36;5.03;;;2.77;;
17943;SDS011;9097;47.028;15.444;2023-02-17T13:39:39;2.97;;;1.73;;
17943;SDS011;9097;47.028;15.444;2023-02-17T13:42:42;3.23;;;2.40;;
17943;SDS011;9097;47.028;15.444;2023-02-17T13:45:47;3.83;;;2.20;;
17943;SDS011;9097;47.028;15.444;2023-02-17T13:48:57;7.77;;;3.57;;
17943;SDS011;9097;47.028;15.444;2023-02-17T13:52:15;5.57;;;1.77;;
17943;SDS011;9097;47.028;15.444;2023-02-17T13:55:18;2.67;;;2.00;;
17943;SDS011;9097;47.028;15.444;2023-02-17T13:58:24;3.73;;;2.27;;
17943;SDS011;9097;47.028;15.444;2023-02-17T14:01:27;3.47;;;2.27;;
17943;SDS011;9097;47.028;15.444;2023-02-17T14:04:30;8.07;;;2.10;;
17943;SDS011;9097;47.028;15.444;2023-02-17T14:07:34;2.00;;;1.80;;
17943;SDS011;9097;47.028;15.444;2023-02-17T14:10:37;3.23;;;1.50;;
17943;SDS011;9097;47.028;15.444;2023-02-17T14:13:40;3.13;;;1.53;;
17943;SDS011;9097;47.028;15.444;2023-02-17T14:16:54;5.87;;;1.80;;
17943;SDS011;9097;47.028;15.444;2023-02-17T14:19:58;2.17;;;1.70;;
17943;SDS011;9097;47.028;15.444;2023-02-17T14:23:04;3.03;;;2.03;;
17943;SDS011;9097;47.028;15.444;2023-02-17T14:26:09;3.33;;;1.93;;
17943;SDS011;9097;47.028;15.444;2023-02-17T14:29:12;2.33;;;1.47;;
17943;SDS011;9097;47.028;15.444;2023-02-17T14:32:29;3.73;;;2.13;;
17943;SDS011;9097;47.028;15.444;2023-02-17T14:35:32;2.10;;;1.70;;
17943;SDS011;9097;47.028;15.444;2023-02-17T14:38:38;5.03;;;2.23;;
17943;SDS011;9097;47.028;15.444;2023-02-17T14:41:41;1.50;;;1.40;;
17943;SDS011;9097;47.028;15.444;2023-02-17T14:44:44;4.70;;;2.20;;
17943;SDS011;9097;47.028;15.444;2023-02-17T14:47:46;5.33;;;2.53;;
17943;SDS011;9097;47.028;15.444;2023-02-17T14:50:49;4.57;;;1.70;;
17943;SDS011;9097;47.028;15.444;2023-02-17T14:53:54;2.63;;;1.90;;
17943;SDS011;9097;47.028;15.444;2023-02-17T14:56:59;3.07;;;1.40;;
17943;SDS011;9097;47.028;15.444;2023-02-17T15:00:08;5.17;;;2.07;;
17943;SDS011;9097;47.028;15.444;2023-02-17T15:03:12;3.40;;;2.00;;
17943;SDS011;9097;47.028;15.444;2023-02-17T15:06:15;6.80;;;2.13;;
17943;SDS011;9097;47.028;15.444;2023-02-17T15:09:21;2.83;;;2.33;;
17943;SDS011;9097;47.028;15.444;2023-02-17T15:12:24;4.37;;;2.00;;
17943;SDS011;9097;47.028;15.444;2023-02-17T15:15:27;3.33;;;2.03;;
17943;SDS011;9097;47.028;15.444;2023-02-17T15:18:30;3.80;;;2.63;;
17943;SDS011;9097;47.028;15.444;2023-02-17T15:21:33;3.77;;;2.90;;
17943;SDS011;9097;47.028;15.444;2023-02-17T15:24:38;7.10;;;3.40;;
17943;SDS011;9097;47.028;15.444;2023-02-17T15:27:41;5.43;;;2.53;;
17943;SDS011;9097;47.028;15.444;2023-02-17T15:30:45;3.03;;;2.27;;
17943;SDS011;9097;47.028;15.444;2023-02-17T15:33:52;6.00;;;2.80;;
17943;SDS011;9097;47.028;15.444;2023-02-17T15:36:56;2.97;;;2.30;;
17943;SDS011;9097;47.028;15.444;2023-02-17T15:40:00;7.30;;;3.57;;
17943;SDS011;9097;47.028;15.444;2023-02-17T15:43:03;4.17;;;1.90;;
17943;SDS011;9097;47.028;15.444;2023-02-17T15:46:09;1.87;;;1.67;;
17943;SDS011;9097;47.028;15.444;2023-02-17T15:49:13;7.17;;;2.17;;
17943;SDS011;9097;47.028;15.444;2023-02-17T15:52:15;2.23;;;1.97;;
17943;SDS011;9097;47.028;15.444;2023-02-17T15:55:20;5.50;;;2.33;;
17943;SDS011;9097;47.028;15.444;2023-02-17T15:58:23;4.57;;;1.93;;
17943;SDS011;9097;47.028;15.444;2023-02-17T16:01:27;5.93;;;2.83;;
17943;SDS011;9097;47.028;15.444;2023-02-17T16:04:30;3.90;;;1.90;;
17943;SDS011;9097;47.028;15.444;2023-02-17T16:07:32;2.43;;;2.10;;
17943;SDS011;9097;47.028;15.444;2023-02-17T16:10:36;2.70;;;1.70;;
17943;SDS011;9097;47.028;15.444;2023-02-17T16:13:42;5.47;;;2.17;;
17943;SDS011;9097;47.028;15.444;2023-02-17T16:16:44;4.07;;;2.73;;
17943;SDS011;9097;47.028;15.444;2023-02-17T16:19:47;9.87;;;2.57;;
17943;SDS011;9097;47.028;15.444;2023-02-17T16:22:50;2.37;;;1.73;;
17943;SDS011;9097;47.028;15.444;2023-02-17T16:25:54;4.67;;;1.70;;
17943;SDS011;9097;47.028;15.444;2023-02-17T16:28:58;4.47;;;3.10;;
17943;SDS011;9097;47.028;15.444;2023-02-17T16:32:01;7.07;;;2.90;;
17943;SDS011;9097;47.028;15.444;2023-02-17T16:35:03;5.23;;;1.97;;
17943;SDS011;9097;47.028;15.444;2023-02-17T16:38:07;5.07;;;2.60;;
17943;SDS011;9097;47.028;15.444;2023-02-17T16:41:12;6.20;;;2.27;;
17943;SDS011;9097;47.028;15.444;2023-02-17T16:44:15;3.47;;;2.80;;
17943;SDS011;9097;47.028;15.444;2023-02-17T16:47:18;6.87;;;2.63;;
17943;SDS011;9097;47.028;15.444;2023-02-17T16:50:23;4.27;;;2.97;;
17943;SDS011;9097;47.028;15.444;2023-02-17T16:53:26;7.17;;;2.73;;
17943;SDS011;9097;47.028;15.444;2023-02-17T16:56:35;5.53;;;3.23;;
17943;SDS011;9097;47.028;15.444;2023-02-17T16:59:39;3.67;;;2.40;;
17943;SDS011;9097;47.028;15.444;2023-02-17T17:02:41;9.07;;;3.57;;
17943;SDS011;9097;47.028;15.444;2023-02-17T17:05:45;7.40;;;3.47;;
17943;SDS011;9097;47.028;15.444;2023-02-17T17:08:48;12.13;;;3.47;;
17943;SDS011;9097;47.028;15.444;2023-02-17T17:11:52;8.13;;;3.83;;
17943;SDS011;9097;47.028;15.444;2023-02-17T17:14:54;6.47;;;3.27;;
17943;SDS011;9097;47.028;15.444;2023-02-17T17:17:57;4.20;;;3.10;;
17943;SDS011;9097;47.028;15.444;2023-02-17T17:21:00;5.27;;;2.83;;
17943;SDS011;9097;47.028;15.444;2023-02-17T17:24:03;5.93;;;3.17;;
17943;SDS011;9097;47.028;15.444;2023-02-17T17:27:08;9.07;;;3.43;;
17943;SDS011;9097;47.028;15.444;2023-02-17T17:30:14;4.63;;;3.10;;
17943;SDS011;9097;47.028;15.444;2023-02-17T17:33:17;6.60;;;3.63;;
17943;SDS011;9097;47.028;15.444;2023-02-17T17:36:21;6.83;;;3.67;;
17943;SDS011;9097;47.028;15.444;2023-02-17T17:39:25;6.83;;;3.73;;
17943;SDS011;9097;47.028;15.444;2023-02-17T17:42:29;9.13;;;3.97;;
17943;SDS011;9097;47.028;15.444;2023-02-17T17:45:31;5.73;;;3.53;;
17943;SDS011;9097;47.028;15.444;2023-02-17T17:48:34;6.90;;;4.23;;
17943;SDS011;9097;47.028;15.444;2023-02-17T17:51:37;7.00;;;4.13;;
17943;SDS011;9097;47.028;15.444;2023-02-17T17:54:40;9.50;;;4.70;;
17943;SDS011;9097;47.028;15.444;2023-02-17T17:57:44;5.27;;;3.50;;
17943;SDS011;9097;47.028;15.444;2023-02-17T18:00:47;8.30;;;3.73;;
17943;SDS011;9097;47.028;15.444;2023-02-17T18:03:50;6.17;;;4.43;;
17943;SDS011;9097;47.028;15.444;2023-02-17T18:06:53;12.13;;;4.60;;
17943;SDS011;9097;47.028;15.444;2023-02-17T18:09:56;9.50;;;5.00;;
17943;SDS011;9097;47.028;15.444;2023-02-17T18:13:00;7.13;;;3.93;;
17943;SDS011;9097;47.028;15.444;2023-02-17T18:16:04;8.80;;;4.13;;
17943;SDS011;9097;47.028;15.444;2023-02-17T18:19:08;8.77;;;4.40;;
17943;SDS011;9097;47.028;15.444;2023-02-17T18:22:11;5.90;;;3.77;;
17943;SDS011;9097;47.028;15.444;2023-02-17T18:25:16;8.70;;;4.60;;
17943;SDS011;9097;47.028;15.444;2023-02-17T18:28:21;12.73;;;4.17;;
17943;SDS011;9097;47.028;15.444;2023-02-17T18:31:24;10.67;;;4.30;;